sensor_id;sensor_type;location;lat;lon;timestamp;pressure;altitude;pressure_sealevel;temperature;humidity
72061;BME280;59925;52.136;5.420;2023-04-19T00:02:22;102989.22;;;8.12;73.66
72061;BME280;59925;52.136;5.420;2023-04-19T00:04:51;102982.44;;;8.10;73.33
72061;BME280;59925;52.136;5.420;2023-04-19T00:07:19;102978.91;;;8.09;73.67
72061;BME280;59925;52.136;5.420;2023-04-19T00:09:45;102973.78;;;8.08;73.88
72061;BME280;59925;52.136;5.420;2023-04-19T00:12:12;102978.50;;;8.06;73.78
72061;BME280;59925;52.136;5.420;2023-04-19T00:14:38;102987.94;;;8.02;74.17
72061;BME280;59925;52.136;5.420;2023-04-19T00:17:04;102983.00;;;7.98;74.12
72061;BME280;59925;52.136;5.420;2023-04-19T00:19:31;102979.88;;;7.95;74.25
72061;BME280;59925;52.136;5.420;2023-04-19T00:21:58;102980.94;;;7.94;74.30
72061;BME280;59925;52.136;5.420;2023-04-19T00:24:24;102987.31;;;7.93;74.41
72061;BME280;59925;52.136;5.420;2023-04-19T00:26:50;102980.50;;;7.90;74.38
72061;BME280;59925;52.136;5.420;2023-04-19T00:29:17;102975.34;;;7.89;74.70
72061;BME280;59925;52.136;5.420;2023-04-19T00:31:43;102977.41;;;7.87;74.62
72061;BME280;59925;52.136;5.420;2023-04-19T00:34:10;102980.28;;;7.85;75.04
72061;BME280;59925;52.136;5.420;2023-04-19T00:36:36;102978.38;;;7.79;74.88
72061;BME280;59925;52.136;5.420;2023-04-19T00:39:02;102974.44;;;7.75;74.99
72061;BME280;59925;52.136;5.420;2023-04-19T00:41:29;102979.38;;;7.71;74.94
72061;BME280;59925;52.136;5.420;2023-04-19T00:43:55;102969.06;;;7.68;75.41
72061;BME280;59925;52.136;5.420;2023-04-19T00:46:22;102963.31;;;7.64;75.23
72061;BME280;59925;52.136;5.420;2023-04-19T00:48:49;102966.19;;;7.63;75.05
72061;BME280;59925;52.136;5.420;2023-04-19T00:51:16;102963.91;;;7.60;75.42
72061;BME280;59925;52.136;5.420;2023-04-19T00:53:43;102967.97;;;7.56;75.60
72061;BME280;59925;52.136;5.420;2023-04-19T00:56:10;102962.44;;;7.50;75.44
72061;BME280;59925;52.136;5.420;2023-04-19T00:58:37;102965.47;;;7.47;76.25
72061;BME280;59925;52.136;5.420;2023-04-19T01:01:04;102959.91;;;7.42;76.25
72061;BME280;59925;52.136;5.420;2023-04-19T01:03:31;102958.66;;;7.38;76.77
72061;BME280;59925;52.136;5.420;2023-04-19T01:06:00;102951.03;;;7.35;76.41
72061;BME280;59925;52.136;5.420;2023-04-19T01:08:27;102952.88;;;7.34;76.74
72061;BME280;59925;52.136;5.420;2023-04-19T01:10:53;102949.59;;;7.32;76.95
72061;BME280;59925;52.136;5.420;2023-04-19T01:13:20;102952.25;;;7.32;77.21
72061;BME280;59925;52.136;5.420;2023-04-19T01:15:46;102951.84;;;7.35;77.54
72061;BME280;59925;52.136;5.420;2023-04-19T01:18:13;102947.97;;;7.38;77.38
72061;BME280;59925;52.136;5.420;2023-04-19T01:20:39;102953.75;;;7.42;77.40
72061;BME280;59925;52.136;5.420;2023-04-19T01:23:06;102955.19;;;7.44;77.71
72061;BME280;59925;52.136;5.420;2023-04-19T01:25:36;102940.44;;;7.48;77.63
72061;BME280;59925;52.136;5.420;2023-04-19T01:28:04;102947.22;;;7.51;77.73
72061;BME280;59925;52.136;5.420;2023-04-19T01:30:31;102954.03;;;7.54;77.68
72061;BME280;59925;52.136;5.420;2023-04-19T01:32:58;102953.19;;;7.53;77.76
72061;BME280;59925;52.136;5.420;2023-04-19T01:35:24;102946.84;;;7.54;77.84
72061;BME280;59925;52.136;5.420;2023-04-19T01:37:51;102945.63;;;7.57;78.22
72061;BME280;59925;52.136;5.420;2023-04-19T01:40:24;102945.84;;;7.62;78.15
72061;BME280;59925;52.136;5.420;2023-04-19T01:42:51;102948.31;;;7.63;78.36
72061;BME280;59925;52.136;5.420;2023-04-19T01:45:18;102946.09;;;7.67;78.12
72061;BME280;59925;52.136;5.420;2023-04-19T01:47:44;102944.66;;;7.71;78.43
72061;BME280;59925;52.136;5.420;2023-04-19T01:50:11;102949.63;;;7.74;78.29
72061;BME280;59925;52.136;5.420;2023-04-19T01:52:37;102949.22;;;7.77;78.27
72061;BME280;59925;52.136;5.420;2023-04-19T01:55:04;102945.53;;;7.78;78.52
72061;BME280;59925;52.136;5.420;2023-04-19T01:57:30;102953.97;;;7.82;78.57
72061;BME280;59925;52.136;5.420;2023-04-19T01:59:57;102948.22;;;7.85;78.46
72061;BME280;59925;52.136;5.420;2023-04-19T02:02:23;102950.69;;;7.87;78.76
72061;BME280;59925;52.136;5.420;2023-04-19T02:04:50;102946.59;;;7.91;78.75
72061;BME280;59925;52.136;5.420;2023-04-19T02:07:16;102948.25;;;7.92;78.90
72061;BME280;59925;52.136;5.420;2023-04-19T02:09:43;102943.34;;;7.95;78.88
72061;BME280;59925;52.136;5.420;2023-04-19T02:12:09;102950.13;;;7.98;78.94
72061;BME280;59925;52.136;5.420;2023-04-19T02:14:36;102948.88;;;8.01;78.87
72061;BME280;59925;52.136;5.420;2023-04-19T02:17:02;102948.50;;;8.04;78.85
72061;BME280;59925;52.136;5.420;2023-04-19T02:19:28;102944.63;;;8.06;78.89
72061;BME280;59925;52.136;5.420;2023-04-19T02:21:55;102936.38;;;8.08;78.72
72061;BME280;59925;52.136;5.420;2023-04-19T02:24:23;102945.84;;;8.10;78.92
72061;BME280;59925;52.136;5.420;2023-04-19T02:26:50;102943.00;;;8.12;78.78
72061;BME280;59925;52.136;5.420;2023-04-19T02:29:17;102945.25;;;8.15;78.78
72061;BME280;59925;52.136;5.420;2023-04-19T02:31:44;102944.66;;;8.20;78.90
72061;BME280;59925;52.136;5.420;2023-04-19T02:34:13;102945.25;;;8.22;79.05
72061;BME280;59925;52.136;5.420;2023-04-19T02:36:40;102948.56;;;8.24;78.99
72061;BME280;59925;52.136;5.420;2023-04-19T02:39:06;102946.50;;;8.26;78.84
72061;BME280;59925;52.136;5.420;2023-04-19T02:41:33;102958.84;;;8.27;78.63
72061;BME280;59925;52.136;5.420;2023-04-19T02:44:00;102958.44;;;8.30;78.98
72061;BME280;59925;52.136;5.420;2023-04-19T02:46:26;102957.44;;;8.31;78.64
72061;BME280;59925;52.136;5.420;2023-04-19T02:48:53;102954.34;;;8.34;78.83
72061;BME280;59925;52.136;5.420;2023-04-19T02:51:19;102949.59;;;8.36;79.27
72061;BME280;59925;52.136;5.420;2023-04-19T02:53:45;102956.59;;;8.37;78.97
72061;BME280;59925;52.136;5.420;2023-04-19T02:56:12;102959.09;;;8.39;78.50
72061;BME280;59925;52.136;5.420;2023-04-19T02:58:38;102943.88;;;8.39;78.64
72061;BME280;59925;52.136;5.420;2023-04-19T03:01:05;102945.72;;;8.39;78.99
72061;BME280;59925;52.136;5.420;2023-04-19T03:03:32;102951.69;;;8.41;78.83
72061;BME280;59925;52.136;5.420;2023-04-19T03:05:58;102949.44;;;8.44;78.40
72061;BME280;59925;52.136;5.420;2023-04-19T03:08:25;102949.22;;;8.46;78.78
72061;BME280;59925;52.136;5.420;2023-04-19T03:10:51;102942.22;;;8.45;78.47
72061;BME280;59925;52.136;5.420;2023-04-19T03:13:17;102950.06;;;8.47;78.46
72061;BME280;59925;52.136;5.420;2023-04-19T03:15:44;102942.84;;;8.47;78.54
72061;BME280;59925;52.136;5.420;2023-04-19T03:18:10;102944.53;;;8.48;78.32
72061;BME280;59925;52.136;5.420;2023-04-19T03:20:37;102947.00;;;8.50;78.60
72061;BME280;59925;52.136;5.420;2023-04-19T03:23:03;102938.16;;;8.49;78.49
72061;BME280;59925;52.136;5.420;2023-04-19T03:25:30;102943.28;;;8.51;78.51
72061;BME280;59925;52.136;5.420;2023-04-19T03:27:57;102941.25;;;8.53;78.55
72061;BME280;59925;52.136;5.420;2023-04-19T03:30:23;102944.75;;;8.53;78.26
72061;BME280;59925;52.136;5.420;2023-04-19T03:32:50;102944.53;;;8.55;78.55
72061;BME280;59925;52.136;5.420;2023-04-19T03:35:18;102937.16;;;8.57;78.35
72061;BME280;59925;52.136;5.420;2023-04-19T03:37:44;102944.34;;;8.56;78.32
72061;BME280;59925;52.136;5.420;2023-04-19T03:40:11;102939.81;;;8.57;78.11
72061;BME280;59925;52.136;5.420;2023-04-19T03:42:37;102933.44;;;8.58;78.26
72061;BME280;59925;52.136;5.420;2023-04-19T03:45:04;102941.47;;;8.58;78.20
72061;BME280;59925;52.136;5.420;2023-04-19T03:47:31;102936.13;;;8.58;78.36
72061;BME280;59925;52.136;5.420;2023-04-19T03:49:57;102938.97;;;8.56;78.47
72061;BME280;59925;52.136;5.420;2023-04-19T03:52:23;102942.91;;;8.54;78.08
72061;BME280;59925;52.136;5.420;2023-04-19T03:54:51;102937.94;;;8.51;77.71
72061;BME280;59925;52.136;5.420;2023-04-19T03:57:17;102935.69;;;8.48;77.93
72061;BME280;59925;52.136;5.420;2023-04-19T03:59:43;102931.94;;;8.42;77.73
72061;BME280;59925;52.136;5.420;2023-04-19T04:02:10;102926.41;;;8.37;77.93
72061;BME280;59925;52.136;5.420;2023-04-19T04:04:36;102938.72;;;8.31;77.96
72061;BME280;59925;52.136;5.420;2023-04-19T04:07:03;102936.66;;;8.26;78.08
72061;BME280;59925;52.136;5.420;2023-04-19T04:09:30;102933.53;;;8.23;78.29
72061;BME280;59925;52.136;5.420;2023-04-19T04:11:56;102932.91;;;8.21;78.26
72061;BME280;59925;52.136;5.420;2023-04-19T04:14:23;102931.31;;;8.20;78.33
72061;BME280;59925;52.136;5.420;2023-04-19T04:16:49;102933.34;;;8.18;78.00
72061;BME280;59925;52.136;5.420;2023-04-19T04:19:16;102931.06;;;8.15;78.00
72061;BME280;59925;52.136;5.420;2023-04-19T04:21:43;102935.56;;;8.14;78.24
72061;BME280;59925;52.136;5.420;2023-04-19T04:24:10;102932.47;;;8.10;78.17
72061;BME280;59925;52.136;5.420;2023-04-19T04:26:36;102942.97;;;8.05;78.17
72061;BME280;59925;52.136;5.420;2023-04-19T04:29:04;102940.47;;;8.04;78.32
72061;BME280;59925;52.136;5.420;2023-04-19T04:31:31;102942.53;;;8.02;78.08
72061;BME280;59925;52.136;5.420;2023-04-19T04:33:57;102936.75;;;7.98;78.14
72061;BME280;59925;52.136;5.420;2023-04-19T04:36:24;102943.72;;;7.92;77.85
72061;BME280;59925;52.136;5.420;2023-04-19T04:38:51;102936.94;;;7.90;78.17
72061;BME280;59925;52.136;5.420;2023-04-19T04:41:17;102936.31;;;7.88;77.79
72061;BME280;59925;52.136;5.420;2023-04-19T04:43:48;102942.06;;;7.85;77.74
72061;BME280;59925;52.136;5.420;2023-04-19T04:46:37;102946.34;;;7.79;78.04
72061;BME280;59925;52.136;5.420;2023-04-19T04:49:03;102943.88;;;7.77;77.69
72061;BME280;59925;52.136;5.420;2023-04-19T04:51:30;102940.16;;;7.72;77.99
72061;BME280;59925;52.136;5.420;2023-04-19T04:53:57;102937.66;;;7.70;77.85
72061;BME280;59925;52.136;5.420;2023-04-19T04:56:23;102943.22;;;7.69;78.06
72061;BME280;59925;52.136;5.420;2023-04-19T04:58:51;102950.38;;;7.68;77.87
72061;BME280;59925;52.136;5.420;2023-04-19T05:01:17;102945.47;;;7.65;78.02
72061;BME280;59925;52.136;5.420;2023-04-19T05:03:45;102944.84;;;7.63;77.83
72061;BME280;59925;52.136;5.420;2023-04-19T05:06:12;102949.75;;;7.59;77.96
72061;BME280;59925;52.136;5.420;2023-04-19T05:08:38;102947.09;;;7.59;77.83
72061;BME280;59925;52.136;5.420;2023-04-19T05:11:04;102950.13;;;7.56;77.74
72061;BME280;59925;52.136;5.420;2023-04-19T05:13:31;102950.31;;;7.55;77.58
72061;BME280;59925;52.136;5.420;2023-04-19T05:15:57;102952.19;;;7.54;77.68
72061;BME280;59925;52.136;5.420;2023-04-19T05:18:24;102946.03;;;7.54;77.61
72061;BME280;59925;52.136;5.420;2023-04-19T05:20:50;102949.50;;;7.54;77.68
72061;BME280;59925;52.136;5.420;2023-04-19T05:23:17;102951.38;;;7.54;77.48
72061;BME280;59925;52.136;5.420;2023-04-19T05:25:43;102948.50;;;7.55;77.38
72061;BME280;59925;52.136;5.420;2023-04-19T05:28:10;102950.53;;;7.53;77.09
72061;BME280;59925;52.136;5.420;2023-04-19T05:30:36;102959.38;;;7.54;76.78
72061;BME280;59925;52.136;5.420;2023-04-19T05:33:03;102949.72;;;7.53;76.49
72061;BME280;59925;52.136;5.420;2023-04-19T05:35:30;102959.97;;;7.56;76.34
72061;BME280;59925;52.136;5.420;2023-04-19T05:37:56;102958.16;;;7.56;75.96
72061;BME280;59925;52.136;5.420;2023-04-19T05:40:22;102954.25;;;7.59;75.88
72061;BME280;59925;52.136;5.420;2023-04-19T05:42:49;102953.47;;;7.65;75.63
72061;BME280;59925;52.136;5.420;2023-04-19T05:45:16;102957.22;;;7.77;75.07
72061;BME280;59925;52.136;5.420;2023-04-19T05:47:44;102963.66;;;7.90;74.71
72061;BME280;59925;52.136;5.420;2023-04-19T05:50:10;102961.09;;;8.17;74.29
72061;BME280;59925;52.136;5.420;2023-04-19T05:52:37;102961.16;;;8.37;72.58
72061;BME280;59925;52.136;5.420;2023-04-19T05:55:04;102957.84;;;8.41;72.49
72061;BME280;59925;52.136;5.420;2023-04-19T05:57:31;102959.50;;;8.42;71.69
72061;BME280;59925;52.136;5.420;2023-04-19T05:59:57;102968.16;;;8.44;71.41
72061;BME280;59925;52.136;5.420;2023-04-19T06:02:28;102961.78;;;8.46;70.86
72061;BME280;59925;52.136;5.420;2023-04-19T06:04:55;102960.75;;;8.47;70.00
72061;BME280;59925;52.136;5.420;2023-04-19T06:07:25;102962.41;;;8.48;69.67
72061;BME280;59925;52.136;5.420;2023-04-19T06:10:01;102952.56;;;8.55;69.20
72061;BME280;59925;52.136;5.420;2023-04-19T06:12:27;102964.53;;;8.66;68.90
72061;BME280;59925;52.136;5.420;2023-04-19T06:14:54;102956.06;;;8.76;68.44
72061;BME280;59925;52.136;5.420;2023-04-19T06:17:20;102965.34;;;8.80;67.83
72061;BME280;59925;52.136;5.420;2023-04-19T06:19:50;102961.88;;;8.86;67.25
72061;BME280;59925;52.136;5.420;2023-04-19T06:22:17;102960.00;;;9.00;66.75
72061;BME280;59925;52.136;5.420;2023-04-19T06:24:44;102960.75;;;9.47;67.16
72061;BME280;59925;52.136;5.420;2023-04-19T06:27:15;102958.50;;;10.74;65.41
72061;BME280;59925;52.136;5.420;2023-04-19T06:29:41;102961.09;;;11.31;60.30
72061;BME280;59925;52.136;5.420;2023-04-19T06:32:08;102965.41;;;10.88;59.18
72061;BME280;59925;52.136;5.420;2023-04-19T06:34:35;102949.78;;;10.53;60.04
72061;BME280;59925;52.136;5.420;2023-04-19T06:37:01;102964.34;;;10.32;59.36
72061;BME280;59925;52.136;5.420;2023-04-19T06:39:27;102964.63;;;10.17;59.28
72061;BME280;59925;52.136;5.420;2023-04-19T06:41:54;102966.94;;;10.07;59.48
72061;BME280;59925;52.136;5.420;2023-04-19T06:44:20;102969.66;;;9.93;59.13
72061;BME280;59925;52.136;5.420;2023-04-19T06:46:46;102959.13;;;9.99;58.71
72061;BME280;59925;52.136;5.420;2023-04-19T06:49:13;102967.53;;;10.09;58.83
72061;BME280;59925;52.136;5.420;2023-04-19T06:51:39;102959.66;;;10.21;58.21
72061;BME280;59925;52.136;5.420;2023-04-19T06:54:06;102962.34;;;10.21;57.58
72061;BME280;59925;52.136;5.420;2023-04-19T06:56:44;102963.53;;;10.32;57.32
72061;BME280;59925;52.136;5.420;2023-04-19T06:59:15;102970.13;;;10.29;56.34
72061;BME280;59925;52.136;5.420;2023-04-19T07:01:43;102968.28;;;10.30;56.46
72061;BME280;59925;52.136;5.420;2023-04-19T07:04:11;102967.63;;;10.34;56.33
72061;BME280;59925;52.136;5.420;2023-04-19T07:06:38;102962.41;;;10.46;55.13
72061;BME280;59925;52.136;5.420;2023-04-19T07:09:05;102961.97;;;10.49;55.32
72061;BME280;59925;52.136;5.420;2023-04-19T07:11:32;102967.69;;;10.60;54.82
72061;BME280;59925;52.136;5.420;2023-04-19T07:13:59;102963.06;;;10.73;54.62
72061;BME280;59925;52.136;5.420;2023-04-19T07:16:26;102963.94;;;10.93;54.60
72061;BME280;59925;52.136;5.420;2023-04-19T07:18:53;102963.72;;;10.94;54.00
72061;BME280;59925;52.136;5.420;2023-04-19T07:21:19;102969.25;;;10.99;53.62
72061;BME280;59925;52.136;5.420;2023-04-19T07:23:46;102969.69;;;10.96;52.96
72061;BME280;59925;52.136;5.420;2023-04-19T07:26:12;102956.22;;;11.03;52.53
72061;BME280;59925;52.136;5.420;2023-04-19T07:28:40;102958.03;;;11.09;51.91
72061;BME280;59925;52.136;5.420;2023-04-19T07:31:06;102971.28;;;11.04;51.05
72061;BME280;59925;52.136;5.420;2023-04-19T07:33:33;102965.16;;;10.97;51.17
72061;BME280;59925;52.136;5.420;2023-04-19T07:35:59;102963.38;;;11.09;50.79
72061;BME280;59925;52.136;5.420;2023-04-19T07:38:27;102961.38;;;11.23;50.62
72061;BME280;59925;52.136;5.420;2023-04-19T07:40:53;102958.63;;;11.30;50.20
72061;BME280;59925;52.136;5.420;2023-04-19T07:43:19;102970.34;;;11.35;50.66
72061;BME280;59925;52.136;5.420;2023-04-19T07:45:46;102968.81;;;11.46;50.00
72061;BME280;59925;52.136;5.420;2023-04-19T07:48:12;102961.03;;;11.57;49.76
72061;BME280;59925;52.136;5.420;2023-04-19T07:50:39;102967.31;;;11.50;49.57
72061;BME280;59925;52.136;5.420;2023-04-19T07:53:05;102971.56;;;11.58;49.14
72061;BME280;59925;52.136;5.420;2023-04-19T07:55:32;102969.03;;;11.82;50.29
72061;BME280;59925;52.136;5.420;2023-04-19T07:58:00;102971.84;;;11.87;48.82
72061;BME280;59925;52.136;5.420;2023-04-19T08:00:26;102974.31;;;11.89;48.91
72061;BME280;59925;52.136;5.420;2023-04-19T08:02:55;102970.44;;;11.85;48.55
72061;BME280;59925;52.136;5.420;2023-04-19T08:05:22;102966.13;;;12.02;47.89
72061;BME280;59925;52.136;5.420;2023-04-19T08:07:50;102967.50;;;12.23;48.80
72061;BME280;59925;52.136;5.420;2023-04-19T08:10:17;102970.91;;;12.31;47.82
72061;BME280;59925;52.136;5.420;2023-04-19T08:12:43;102971.44;;;12.21;47.23
72061;BME280;59925;52.136;5.420;2023-04-19T08:15:30;102966.34;;;12.31;47.51
72061;BME280;59925;52.136;5.420;2023-04-19T08:17:59;102971.72;;;12.31;47.29
72061;BME280;59925;52.136;5.420;2023-04-19T08:20:26;102957.09;;;12.27;46.89
72061;BME280;59925;52.136;5.420;2023-04-19T08:22:52;102964.19;;;12.52;46.82
72061;BME280;59925;52.136;5.420;2023-04-19T08:25:19;102960.13;;;12.85;46.93
72061;BME280;59925;52.136;5.420;2023-04-19T08:27:46;102964.03;;;13.01;46.65
72061;BME280;59925;52.136;5.420;2023-04-19T08:30:12;102964.38;;;13.16;46.33
72061;BME280;59925;52.136;5.420;2023-04-19T08:32:39;102970.56;;;13.05;45.10
72061;BME280;59925;52.136;5.420;2023-04-19T08:35:06;102959.56;;;12.95;44.48
72061;BME280;59925;52.136;5.420;2023-04-19T08:37:33;102966.69;;;12.89;45.27
72061;BME280;59925;52.136;5.420;2023-04-19T08:40:00;102964.13;;;13.06;44.64
72061;BME280;59925;52.136;5.420;2023-04-19T08:42:26;102951.22;;;13.32;44.91
72061;BME280;59925;52.136;5.420;2023-04-19T08:45:02;102950.78;;;13.23;43.88
72061;BME280;59925;52.136;5.420;2023-04-19T08:47:35;102948.31;;;13.22;42.43
72061;BME280;59925;52.136;5.420;2023-04-19T08:50:13;102950.78;;;13.11;44.01
72061;BME280;59925;52.136;5.420;2023-04-19T08:52:59;102948.53;;;13.32;43.97
72061;BME280;59925;52.136;5.420;2023-04-19T08:55:46;102954.41;;;13.29;41.21
72061;BME280;59925;52.136;5.420;2023-04-19T08:58:33;102954.53;;;13.22;42.22
72061;BME280;59925;52.136;5.420;2023-04-19T09:01:17;102955.56;;;13.33;41.54
72061;BME280;59925;52.136;5.420;2023-04-19T09:03:59;102952.56;;;13.41;40.76
72061;BME280;59925;52.136;5.420;2023-04-19T09:06:46;102947.91;;;13.66;41.47
72061;BME280;59925;52.136;5.420;2023-04-19T09:09:20;102947.59;;;13.50;40.16
72061;BME280;59925;52.136;5.420;2023-04-19T09:11:50;102948.41;;;13.39;40.70
72061;BME280;59925;52.136;5.420;2023-04-19T09:14:19;102944.69;;;13.52;39.42
72061;BME280;59925;52.136;5.420;2023-04-19T09:16:46;102945.13;;;13.60;40.50
72061;BME280;59925;52.136;5.420;2023-04-19T09:19:13;102948.38;;;14.03;40.62
72061;BME280;59925;52.136;5.420;2023-04-19T09:21:50;102946.88;;;14.24;40.19
72061;BME280;59925;52.136;5.420;2023-04-19T09:24:30;102931.13;;;14.50;40.14
72061;BME280;59925;52.136;5.420;2023-04-19T09:27:34;102942.41;;;14.47;38.73
72061;BME280;59925;52.136;5.420;2023-04-19T09:30:03;102947.22;;;14.45;38.02
72061;BME280;59925;52.136;5.420;2023-04-19T09:32:45;102934.72;;;14.39;39.14
72061;BME280;59925;52.136;5.420;2023-04-19T09:35:12;102927.22;;;14.58;39.63
72061;BME280;59925;52.136;5.420;2023-04-19T09:37:39;102927.47;;;14.91;39.05
72061;BME280;59925;52.136;5.420;2023-04-19T09:40:26;102920.69;;;15.27;38.70
72061;BME280;59925;52.136;5.420;2023-04-19T09:42:54;102933.00;;;15.01;39.46
72061;BME280;59925;52.136;5.420;2023-04-19T09:45:23;102938.50;;;14.89;38.89
72061;BME280;59925;52.136;5.420;2023-04-19T09:48:05;102928.81;;;15.10;39.24
72061;BME280;59925;52.136;5.420;2023-04-19T09:50:34;102921.66;;;15.21;38.46
72061;BME280;59925;52.136;5.420;2023-04-19T09:53:17;102927.25;;;15.14;37.86
72061;BME280;59925;52.136;5.420;2023-04-19T09:55:44;102926.72;;;14.95;38.22
72061;BME280;59925;52.136;5.420;2023-04-19T09:58:26;102925.22;;;15.05;38.53
72061;BME280;59925;52.136;5.420;2023-04-19T10:01:03;102924.75;;;15.30;38.38
72061;BME280;59925;52.136;5.420;2023-04-19T10:03:33;102922.38;;;15.33;37.28
72061;BME280;59925;52.136;5.420;2023-04-19T10:06:00;102924.09;;;15.40;38.50
72061;BME280;59925;52.136;5.420;2023-04-19T10:08:39;102918.84;;;15.55;38.59
72061;BME280;59925;52.136;5.420;2023-04-19T10:11:06;102935.63;;;15.79;36.63
72061;BME280;59925;52.136;5.420;2023-04-19T10:13:33;102917.38;;;15.70;37.31
72061;BME280;59925;52.136;5.420;2023-04-19T10:15:59;102912.84;;;15.75;36.83
72061;BME280;59925;52.136;5.420;2023-04-19T10:18:43;102903.94;;;15.97;36.87
72061;BME280;59925;52.136;5.420;2023-04-19T10:21:10;102909.38;;;16.02;35.61
72061;BME280;59925;52.136;5.420;2023-04-19T10:23:38;102905.19;;;15.89;37.00
72061;BME280;59925;52.136;5.420;2023-04-19T10:26:04;102906.03;;;16.22;36.68
72061;BME280;59925;52.136;5.420;2023-04-19T10:28:34;102903.50;;;16.11;35.23
72061;BME280;59925;52.136;5.420;2023-04-19T10:31:03;102894.19;;;16.29;36.32
72061;BME280;59925;52.136;5.420;2023-04-19T10:33:33;102906.44;;;16.36;35.34
72061;BME280;59925;52.136;5.420;2023-04-19T10:36:00;102895.34;;;16.38;35.36
72061;BME280;59925;52.136;5.420;2023-04-19T10:38:38;102892.84;;;16.31;35.69
72061;BME280;59925;52.136;5.420;2023-04-19T10:41:05;102892.25;;;16.57;34.70
72061;BME280;59925;52.136;5.420;2023-04-19T10:43:47;102889.16;;;16.43;35.05
72061;BME280;59925;52.136;5.420;2023-04-19T10:49:05;102880.22;;;16.80;35.09
72061;BME280;59925;52.136;5.420;2023-04-19T10:51:34;102892.97;;;16.90;35.84
72061;BME280;59925;52.136;5.420;2023-04-19T10:54:08;102884.06;;;16.89;34.56
72061;BME280;59925;52.136;5.420;2023-04-19T11:01:44;102872.66;;;17.45;33.78
72061;BME280;59925;52.136;5.420;2023-04-19T11:09:23;102874.06;;;17.58;33.33
72061;BME280;59925;52.136;5.420;2023-04-19T11:11:51;102865.16;;;17.89;32.90
72061;BME280;59925;52.136;5.420;2023-04-19T11:14:19;102861.09;;;17.97;33.01
72061;BME280;59925;52.136;5.420;2023-04-19T11:16:46;102853.75;;;17.66;30.52
72061;BME280;59925;52.136;5.420;2023-04-19T11:19:16;102859.41;;;17.65;31.92
72061;BME280;59925;52.136;5.420;2023-04-19T11:21:47;102855.38;;;17.77;31.17
72061;BME280;59925;52.136;5.420;2023-04-19T11:24:15;102850.84;;;17.99;30.72
72061;BME280;59925;52.136;5.420;2023-04-19T11:26:44;102853.53;;;18.09;30.92
72061;BME280;59925;52.136;5.420;2023-04-19T11:29:11;102846.47;;;18.08;32.25
72061;BME280;59925;52.136;5.420;2023-04-19T11:31:38;102834.78;;;18.28;31.18
72061;BME280;59925;52.136;5.420;2023-04-19T11:34:05;102833.44;;;18.31;31.21
72061;BME280;59925;52.136;5.420;2023-04-19T11:36:31;102829.81;;;18.72;31.52
72061;BME280;59925;52.136;5.420;2023-04-19T11:38:59;102830.84;;;18.86;31.21
72061;BME280;59925;52.136;5.420;2023-04-19T11:41:25;102826.78;;;18.83;29.43
72061;BME280;59925;52.136;5.420;2023-04-19T11:43:52;102819.53;;;18.48;27.88
72061;BME280;59925;52.136;5.420;2023-04-19T11:46:18;102821.47;;;18.47;30.40
72061;BME280;59925;52.136;5.420;2023-04-19T11:48:51;102815.91;;;18.89;29.98
72061;BME280;59925;52.136;5.420;2023-04-19T11:51:19;102804.28;;;19.33;29.57
72061;BME280;59925;52.136;5.420;2023-04-19T11:53:45;102808.75;;;19.13;29.55
72061;BME280;59925;52.136;5.420;2023-04-19T11:56:12;102800.28;;;19.20;28.24
72061;BME280;59925;52.136;5.420;2023-04-19T11:58:43;102797.44;;;18.86;27.84
72061;BME280;59925;52.136;5.420;2023-04-19T12:01:21;102805.56;;;18.96;26.71
72061;BME280;59925;52.136;5.420;2023-04-19T12:03:54;102797.34;;;19.06;27.57
72061;BME280;59925;52.136;5.420;2023-04-19T12:06:26;102794.53;;;19.27;27.78
72061;BME280;59925;52.136;5.420;2023-04-19T12:08:54;102785.53;;;19.32;26.42
72061;BME280;59925;52.136;5.420;2023-04-19T12:11:23;102788.56;;;19.30;27.76
72061;BME280;59925;52.136;5.420;2023-04-19T12:14:08;102783.31;;;19.73;27.40
72061;BME280;59925;52.136;5.420;2023-04-19T12:16:35;102788.44;;;19.45;27.60
72061;BME280;59925;52.136;5.420;2023-04-19T12:19:15;102788.47;;;19.40;27.16
72061;BME280;59925;52.136;5.420;2023-04-19T12:21:46;102789.31;;;19.75;26.33
72061;BME280;59925;52.136;5.420;2023-04-19T12:24:15;102789.72;;;19.93;27.82
72061;BME280;59925;52.136;5.420;2023-04-19T12:26:55;102785.81;;;20.04;26.37
72061;BME280;59925;52.136;5.420;2023-04-19T12:29:23;102780.06;;;20.06;26.30
72061;BME280;59925;52.136;5.420;2023-04-19T12:31:49;102774.72;;;20.25;26.18
72061;BME280;59925;52.136;5.420;2023-04-19T12:34:16;102776.41;;;20.21;25.85
72061;BME280;59925;52.136;5.420;2023-04-19T12:36:42;102769.03;;;19.97;26.83
72061;BME280;59925;52.136;5.420;2023-04-19T12:39:09;102772.16;;;20.34;26.66
72061;BME280;59925;52.136;5.420;2023-04-19T12:41:35;102764.66;;;20.50;26.46
72061;BME280;59925;52.136;5.420;2023-04-19T12:44:01;102764.00;;;20.58;27.50
72061;BME280;59925;52.136;5.420;2023-04-19T12:46:28;102755.13;;;20.47;26.23
72061;BME280;59925;52.136;5.420;2023-04-19T12:48:54;102763.19;;;20.58;26.58
72061;BME280;59925;52.136;5.420;2023-04-19T12:51:21;102752.66;;;20.75;26.01
72061;BME280;59925;52.136;5.420;2023-04-19T12:53:48;102755.16;;;20.91;26.48
72061;BME280;59925;52.136;5.420;2023-04-19T12:56:16;102751.50;;;20.81;25.91
72061;BME280;59925;52.136;5.420;2023-04-19T12:58:43;102747.34;;;20.84;26.12
72061;BME280;59925;52.136;5.420;2023-04-19T13:01:09;102756.44;;;20.74;24.83
72061;BME280;59925;52.136;5.420;2023-04-19T13:03:36;102750.19;;;20.74;26.35
72061;BME280;59925;52.136;5.420;2023-04-19T13:06:03;102740.81;;;20.61;24.66
72061;BME280;59925;52.136;5.420;2023-04-19T13:08:31;102734.44;;;20.46;25.81
72061;BME280;59925;52.136;5.420;2023-04-19T13:11:11;102727.78;;;20.33;26.03
72061;BME280;59925;52.136;5.420;2023-04-19T13:13:37;102715.50;;;20.36;25.62
72061;BME280;59925;52.136;5.420;2023-04-19T13:16:04;102710.88;;;20.80;26.68